Terminal Aerodrome Forecast
Issued by NWS Omaha/Valley, NE

Home | Current Version | Previous Version | Text Only | Print | Product List | Glossary On
Versions: 1 2 3 4 5 6 7 8 9 10 11 12 13 14 15 16 17 18 19 20 21 22 23 24 25 26 27 28 29 30 31
000
FTUS43 KOAX 022325
TAFOMA
TAF
KOMA 022325Z 0300/0324 15014G21KT P6SM SCT040 SCT120 BKN250
     FM030400 15014KT P6SM BKN150
     FM030900 15010KT P6SM BKN090
      TEMPO 0310/0314 4SM -SHRA BR OVC025
     FM031900 16014G22KT P6SM BKN040 PROB30 0321/0324 VRB15G25KT 5SM
      TSRA BKN030CB=

USA.gov is the U.S. government's official web portal to all federal, state and local government web resources and services.